sensor_id;sensor_type;location;lat;lon;timestamp;pressure;altitude;pressure_sealevel;temperature;humidity
61870;BME280;47810;42.264;23.826;2023-06-22T00:01:09;94189.72;;;20.03;56.70
61870;BME280;47810;42.264;23.826;2023-06-22T00:03:34;94192.81;;;20.08;57.96
61870;BME280;47810;42.264;23.826;2023-06-22T00:06:00;94198.19;;;20.08;61.24
61870;BME280;47810;42.264;23.826;2023-06-22T00:08:25;94188.34;;;19.99;62.81
61870;BME280;47810;42.264;23.826;2023-06-22T00:10:51;94192.91;;;19.89;62.62
61870;BME280;47810;42.264;23.826;2023-06-22T00:13:17;94197.69;;;19.95;61.48
61870;BME280;47810;42.264;23.826;2023-06-22T00:15:43;94201.56;;;19.83;62.61
61870;BME280;47810;42.264;23.826;2023-06-22T00:18:09;94214.00;;;19.74;62.93
61870;BME280;47810;42.264;23.826;2023-06-22T00:20:35;94220.09;;;19.66;63.57
61870;BME280;47810;42.264;23.826;2023-06-22T00:23:05;94220.34;;;19.63;64.71
61870;BME280;47810;42.264;23.826;2023-06-22T00:25:37;94222.81;;;19.94;64.58
61870;BME280;47810;42.264;23.826;2023-06-22T00:28:03;94209.28;;;19.86;65.20
61870;BME280;47810;42.264;23.826;2023-06-22T00:30:30;94209.13;;;19.40;65.61
61870;BME280;47810;42.264;23.826;2023-06-22T00:32:55;94212.22;;;19.36;65.67
61870;BME280;47810;42.264;23.826;2023-06-22T00:35:21;94209.28;;;19.39;66.66
61870;BME280;47810;42.264;23.826;2023-06-22T00:37:47;94213.09;;;19.46;66.22
61870;BME280;47810;42.264;23.826;2023-06-22T00:40:12;94208.28;;;19.49;65.64
61870;BME280;47810;42.264;23.826;2023-06-22T00:42:38;94198.97;;;19.44;63.32
61870;BME280;47810;42.264;23.826;2023-06-22T00:45:06;94205.16;;;19.64;62.61
61870;BME280;47810;42.264;23.826;2023-06-22T00:47:33;94194.44;;;19.54;63.97
61870;BME280;47810;42.264;23.826;2023-06-22T00:49:59;94204.06;;;19.47;64.00
61870;BME280;47810;42.264;23.826;2023-06-22T00:52:25;94204.00;;;19.66;64.39
61870;BME280;47810;42.264;23.826;2023-06-22T00:54:54;94202.34;;;19.65;64.90
61870;BME280;47810;42.264;23.826;2023-06-22T00:57:21;94200.81;;;19.43;65.59
61870;BME280;47810;42.264;23.826;2023-06-22T00:59:47;94193.63;;;19.44;65.06
61870;BME280;47810;42.264;23.826;2023-06-22T01:02:13;94195.16;;;19.56;61.72
61870;BME280;47810;42.264;23.826;2023-06-22T01:04:39;94207.44;;;19.49;61.43
61870;BME280;47810;42.264;23.826;2023-06-22T01:09:35;94204.19;;;19.36;65.66
61870;BME280;47810;42.264;23.826;2023-06-22T01:12:05;94202.13;;;19.29;65.70
61870;BME280;47810;42.264;23.826;2023-06-22T01:16:57;94200.88;;;19.14;66.73
61870;BME280;47810;42.264;23.826;2023-06-22T01:21:53;94193.69;;;19.15;67.46
61870;BME280;47810;42.264;23.826;2023-06-22T01:24:30;94197.94;;;19.07;68.84
61870;BME280;47810;42.264;23.826;2023-06-22T01:27:05;94196.81;;;19.10;68.09
61870;BME280;47810;42.264;23.826;2023-06-22T01:29:35;94201.03;;;18.93;63.86
61870;BME280;47810;42.264;23.826;2023-06-22T01:32:02;94192.31;;;19.01;61.10
61870;BME280;47810;42.264;23.826;2023-06-22T01:34:29;94183.00;;;19.05;59.85
61870;BME280;47810;42.264;23.826;2023-06-22T01:36:56;94179.03;;;19.09;60.22
61870;BME280;47810;42.264;23.826;2023-06-22T01:39:23;94184.53;;;19.17;58.65
61870;BME280;47810;42.264;23.826;2023-06-22T01:41:49;94182.66;;;19.37;58.54
61870;BME280;47810;42.264;23.826;2023-06-22T01:44:15;94179.53;;;19.42;57.93
61870;BME280;47810;42.264;23.826;2023-06-22T01:46:41;94187.16;;;19.37;57.85
61870;BME280;47810;42.264;23.826;2023-06-22T01:49:07;94196.25;;;19.63;57.48
61870;BME280;47810;42.264;23.826;2023-06-22T01:51:33;94194.72;;;19.51;57.84
61870;BME280;47810;42.264;23.826;2023-06-22T01:53:58;94186.00;;;19.49;58.03
61870;BME280;47810;42.264;23.826;2023-06-22T01:56:24;94203.91;;;19.39;59.88
61870;BME280;47810;42.264;23.826;2023-06-22T01:59:04;94184.91;;;19.32;60.96
61870;BME280;47810;42.264;23.826;2023-06-22T02:01:36;94181.38;;;19.31;62.51
61870;BME280;47810;42.264;23.826;2023-06-22T02:04:09;94185.47;;;19.26;63.05
61870;BME280;47810;42.264;23.826;2023-06-22T02:06:37;94188.19;;;19.06;64.56
61870;BME280;47810;42.264;23.826;2023-06-22T02:09:12;94199.34;;;19.02;65.09
61870;BME280;47810;42.264;23.826;2023-06-22T02:11:40;94203.59;;;18.95;65.83
61870;BME280;47810;42.264;23.826;2023-06-22T02:14:06;94206.66;;;19.00;67.81
61870;BME280;47810;42.264;23.826;2023-06-22T02:16:32;94199.91;;;18.96;66.65
61870;BME280;47810;42.264;23.826;2023-06-22T02:18:58;94195.84;;;18.92;67.00
61870;BME280;47810;42.264;23.826;2023-06-22T02:21:30;94205.44;;;18.84;67.21
61870;BME280;47810;42.264;23.826;2023-06-22T02:23:57;94209.50;;;18.89;67.39
61870;BME280;47810;42.264;23.826;2023-06-22T02:26:24;94211.75;;;18.83;67.57
61870;BME280;47810;42.264;23.826;2023-06-22T02:28:50;94216.13;;;18.84;67.97
61870;BME280;47810;42.264;23.826;2023-06-22T02:31:16;94215.41;;;18.92;67.19
61870;BME280;47810;42.264;23.826;2023-06-22T02:33:41;94212.75;;;18.82;67.54
61870;BME280;47810;42.264;23.826;2023-06-22T02:36:09;94217.81;;;18.76;67.61
61870;BME280;47810;42.264;23.826;2023-06-22T02:38:35;94221.63;;;18.73;67.89
61870;BME280;47810;42.264;23.826;2023-06-22T02:41:02;94216.53;;;18.80;68.40
61870;BME280;47810;42.264;23.826;2023-06-22T02:43:27;94212.84;;;18.71;67.98
61870;BME280;47810;42.264;23.826;2023-06-22T02:45:53;94210.31;;;18.70;69.04
61870;BME280;47810;42.264;23.826;2023-06-22T02:48:19;94202.72;;;18.65;69.56
61870;BME280;47810;42.264;23.826;2023-06-22T02:50:44;94201.84;;;18.55;69.57
61870;BME280;47810;42.264;23.826;2023-06-22T02:53:11;94201.44;;;18.50;69.92
61870;BME280;47810;42.264;23.826;2023-06-22T02:55:36;94203.69;;;18.54;69.79
61870;BME280;47810;42.264;23.826;2023-06-22T02:58:03;94201.84;;;18.55;68.81
61870;BME280;47810;42.264;23.826;2023-06-22T03:00:30;94205.25;;;18.57;68.52
61870;BME280;47810;42.264;23.826;2023-06-22T03:02:57;94201.28;;;18.61;68.78
61870;BME280;47810;42.264;23.826;2023-06-22T03:05:23;94208.63;;;18.59;67.91
61870;BME280;47810;42.264;23.826;2023-06-22T03:07:49;94202.13;;;18.52;67.25
61870;BME280;47810;42.264;23.826;2023-06-22T03:10:14;94209.31;;;18.51;67.27
61870;BME280;47810;42.264;23.826;2023-06-22T03:12:40;94201.56;;;18.68;67.02
61870;BME280;47810;42.264;23.826;2023-06-22T03:15:07;94199.19;;;18.55;66.83
61870;BME280;47810;42.264;23.826;2023-06-22T03:17:34;94203.56;;;18.56;66.99
61870;BME280;47810;42.264;23.826;2023-06-22T03:20:00;94200.00;;;18.46;65.39
61870;BME280;47810;42.264;23.826;2023-06-22T03:22:26;94204.41;;;18.47;64.21
61870;BME280;47810;42.264;23.826;2023-06-22T03:24:52;94202.94;;;18.33;66.36
61870;BME280;47810;42.264;23.826;2023-06-22T03:27:18;94202.00;;;18.44;66.68
61870;BME280;47810;42.264;23.826;2023-06-22T03:29:44;94218.59;;;18.37;67.13
61870;BME280;47810;42.264;23.826;2023-06-22T03:32:10;94216.91;;;18.36;69.08
61870;BME280;47810;42.264;23.826;2023-06-22T03:34:35;94228.59;;;18.55;67.71
61870;BME280;47810;42.264;23.826;2023-06-22T03:37:04;94226.63;;;18.57;67.97
61870;BME280;47810;42.264;23.826;2023-06-22T03:39:29;94234.50;;;18.49;67.78
61870;BME280;47810;42.264;23.826;2023-06-22T03:41:55;94234.94;;;18.54;69.17
61870;BME280;47810;42.264;23.826;2023-06-22T03:44:20;94241.28;;;18.53;68.53
61870;BME280;47810;42.264;23.826;2023-06-22T03:46:46;94234.09;;;18.53;69.61
61870;BME280;47810;42.264;23.826;2023-06-22T03:49:12;94229.03;;;18.50;70.51
61870;BME280;47810;42.264;23.826;2023-06-22T03:51:37;94224.69;;;18.59;71.10
61870;BME280;47810;42.264;23.826;2023-06-22T03:54:03;94226.84;;;18.84;67.08
61870;BME280;47810;42.264;23.826;2023-06-22T03:56:29;94237.91;;;18.60;67.46
61870;BME280;47810;42.264;23.826;2023-06-22T03:58:54;94235.22;;;18.70;67.81
61870;BME280;47810;42.264;23.826;2023-06-22T04:01:20;94235.38;;;18.69;69.19
61870;BME280;47810;42.264;23.826;2023-06-22T04:03:45;94233.44;;;18.90;68.10
61870;BME280;47810;42.264;23.826;2023-06-22T04:06:13;94237.66;;;18.93;67.92
61870;BME280;47810;42.264;23.826;2023-06-22T04:08:38;94237.38;;;18.96;67.90
61870;BME280;47810;42.264;23.826;2023-06-22T04:11:04;94235.66;;;19.34;66.81
61870;BME280;47810;42.264;23.826;2023-06-22T04:13:30;94233.97;;;19.13;67.79
61870;BME280;47810;42.264;23.826;2023-06-22T04:15:56;94235.41;;;19.07;67.55
61870;BME280;47810;42.264;23.826;2023-06-22T04:18:21;94237.66;;;19.12;67.66
61870;BME280;47810;42.264;23.826;2023-06-22T04:20:47;94234.28;;;19.10;66.48
61870;BME280;47810;42.264;23.826;2023-06-22T04:23:12;94239.19;;;19.15;67.09
61870;BME280;47810;42.264;23.826;2023-06-22T04:25:39;94230.88;;;19.27;67.44
61870;BME280;47810;42.264;23.826;2023-06-22T04:28:04;94241.59;;;19.27;68.37
61870;BME280;47810;42.264;23.826;2023-06-22T04:30:30;94246.66;;;19.30;66.77
61870;BME280;47810;42.264;23.826;2023-06-22T04:32:56;94253.13;;;19.38;66.38
61870;BME280;47810;42.264;23.826;2023-06-22T04:35:26;94251.41;;;19.66;65.14
61870;BME280;47810;42.264;23.826;2023-06-22T04:38:25;94258.81;;;19.82;65.23
61870;BME280;47810;42.264;23.826;2023-06-22T04:40:50;94255.56;;;19.88;64.65
61870;BME280;47810;42.264;23.826;2023-06-22T04:43:16;94259.50;;;19.84;65.48
61870;BME280;47810;42.264;23.826;2023-06-22T04:46:15;94257.19;;;19.98;66.34
61870;BME280;47810;42.264;23.826;2023-06-22T04:48:41;94249.72;;;20.02;65.03
61870;BME280;47810;42.264;23.826;2023-06-22T04:51:06;94243.28;;;20.22;63.95
61870;BME280;47810;42.264;23.826;2023-06-22T04:53:33;94238.22;;;20.19;65.48
61870;BME280;47810;42.264;23.826;2023-06-22T04:55:59;94241.81;;;20.28;66.55
61870;BME280;47810;42.264;23.826;2023-06-22T04:58:25;94242.59;;;20.38;65.23
61870;BME280;47810;42.264;23.826;2023-06-22T05:00:53;94232.75;;;20.39;64.73
61870;BME280;47810;42.264;23.826;2023-06-22T05:03:22;94239.91;;;20.20;66.07
61870;BME280;47810;42.264;23.826;2023-06-22T05:05:47;94239.78;;;20.40;62.94
61870;BME280;47810;42.264;23.826;2023-06-22T05:08:13;94231.09;;;20.56;61.23
61870;BME280;47810;42.264;23.826;2023-06-22T05:10:39;94234.97;;;20.43;64.58
61870;BME280;47810;42.264;23.826;2023-06-22T05:13:04;94235.31;;;20.31;64.49
61870;BME280;47810;42.264;23.826;2023-06-22T05:15:30;94237.81;;;20.42;64.72
61870;BME280;47810;42.264;23.826;2023-06-22T05:18:02;94234.88;;;20.63;65.31
61870;BME280;47810;42.264;23.826;2023-06-22T05:20:30;94240.56;;;20.50;65.95
61870;BME280;47810;42.264;23.826;2023-06-22T05:22:56;94245.66;;;20.53;65.84
61870;BME280;47810;42.264;23.826;2023-06-22T05:25:22;94247.63;;;20.51;64.90
61870;BME280;47810;42.264;23.826;2023-06-22T05:27:48;94241.38;;;20.60;66.00
61870;BME280;47810;42.264;23.826;2023-06-22T05:30:13;94251.03;;;20.53;66.83
61870;BME280;47810;42.264;23.826;2023-06-22T05:32:39;94245.66;;;20.53;66.89
61870;BME280;47810;42.264;23.826;2023-06-22T05:35:04;94250.22;;;20.43;67.33
61870;BME280;47810;42.264;23.826;2023-06-22T05:37:30;94254.19;;;20.39;67.95
61870;BME280;47810;42.264;23.826;2023-06-22T05:39:56;94255.88;;;20.40;68.34
61870;BME280;47810;42.264;23.826;2023-06-22T05:42:22;94259.09;;;20.43;67.91
61870;BME280;47810;42.264;23.826;2023-06-22T05:44:48;94251.81;;;20.63;66.01
61870;BME280;47810;42.264;23.826;2023-06-22T05:47:13;94251.88;;;20.54;64.21
61870;BME280;47810;42.264;23.826;2023-06-22T05:49:39;94256.97;;;20.47;63.85
61870;BME280;47810;42.264;23.826;2023-06-22T05:52:04;94261.69;;;20.63;63.45
61870;BME280;47810;42.264;23.826;2023-06-22T05:54:30;94261.16;;;20.59;63.56
61870;BME280;47810;42.264;23.826;2023-06-22T05:56:56;94253.09;;;20.59;63.99
61870;BME280;47810;42.264;23.826;2023-06-22T05:59:22;94253.22;;;20.67;63.96
61870;BME280;47810;42.264;23.826;2023-06-22T06:01:47;94251.50;;;20.66;64.86
61870;BME280;47810;42.264;23.826;2023-06-22T06:04:18;94255.66;;;20.79;65.19
61870;BME280;47810;42.264;23.826;2023-06-22T06:06:44;94245.38;;;20.92;64.66
61870;BME280;47810;42.264;23.826;2023-06-22T06:09:10;94250.53;;;21.03;64.39
61870;BME280;47810;42.264;23.826;2023-06-22T06:11:37;94246.38;;;21.45;63.81
61870;BME280;47810;42.264;23.826;2023-06-22T06:14:02;94262.09;;;21.22;62.84
61870;BME280;47810;42.264;23.826;2023-06-22T06:16:28;94256.81;;;21.30;63.59
61870;BME280;47810;42.264;23.826;2023-06-22T06:18:54;94254.91;;;21.40;64.57
61870;BME280;47810;42.264;23.826;2023-06-22T06:21:21;94249.94;;;21.53;62.56
61870;BME280;47810;42.264;23.826;2023-06-22T06:23:46;94253.03;;;21.58;62.01
61870;BME280;47810;42.264;23.826;2023-06-22T06:26:12;94254.38;;;21.89;61.06
61870;BME280;47810;42.264;23.826;2023-06-22T06:28:38;94260.81;;;21.96;62.65
61870;BME280;47810;42.264;23.826;2023-06-22T06:31:04;94255.34;;;22.05;62.68
61870;BME280;47810;42.264;23.826;2023-06-22T06:33:32;94255.22;;;21.89;61.74
61870;BME280;47810;42.264;23.826;2023-06-22T06:35:58;94259.19;;;22.29;62.21
61870;BME280;47810;42.264;23.826;2023-06-22T06:38:27;94254.59;;;22.21;61.01
61870;BME280;47810;42.264;23.826;2023-06-22T06:40:52;94262.88;;;22.28;61.39
61870;BME280;47810;42.264;23.826;2023-06-22T06:43:18;94260.06;;;22.46;62.25
61870;BME280;47810;42.264;23.826;2023-06-22T06:45:44;94265.03;;;22.67;63.58
61870;BME280;47810;42.264;23.826;2023-06-22T06:48:10;94263.19;;;22.75;62.98
61870;BME280;47810;42.264;23.826;2023-06-22T06:50:35;94269.63;;;22.83;62.99
61870;BME280;47810;42.264;23.826;2023-06-22T06:53:01;94266.78;;;22.92;62.87
61870;BME280;47810;42.264;23.826;2023-06-22T06:55:27;94267.50;;;23.02;62.40
61870;BME280;47810;42.264;23.826;2023-06-22T06:57:55;94253.22;;;23.18;61.69
61870;BME280;47810;42.264;23.826;2023-06-22T07:00:21;94257.72;;;23.01;62.08
61870;BME280;47810;42.264;23.826;2023-06-22T07:02:46;94257.22;;;23.14;62.17
61870;BME280;47810;42.264;23.826;2023-06-22T07:05:13;94264.84;;;23.35;62.07
61870;BME280;47810;42.264;23.826;2023-06-22T07:07:39;94262.13;;;23.43;61.64
61870;BME280;47810;42.264;23.826;2023-06-22T07:10:05;94259.47;;;23.60;61.70
61870;BME280;47810;42.264;23.826;2023-06-22T07:12:31;94262.66;;;23.71;60.71
61870;BME280;47810;42.264;23.826;2023-06-22T07:15:04;94265.19;;;23.81;60.49
61870;BME280;47810;42.264;23.826;2023-06-22T07:17:30;94266.50;;;24.02;60.20
61870;BME280;47810;42.264;23.826;2023-06-22T07:19:55;94264.81;;;24.09;60.29
61870;BME280;47810;42.264;23.826;2023-06-22T07:22:21;94259.69;;;24.22;59.34
61870;BME280;47810;42.264;23.826;2023-06-22T07:24:46;94256.66;;;24.33;58.72
61870;BME280;47810;42.264;23.826;2023-06-22T07:27:12;94257.97;;;24.46;59.89
61870;BME280;47810;42.264;23.826;2023-06-22T07:29:37;94257.53;;;24.65;58.55
61870;BME280;47810;42.264;23.826;2023-06-22T07:32:05;94253.44;;;24.77;58.78
61870;BME280;47810;42.264;23.826;2023-06-22T07:34:31;94253.03;;;24.89;57.05
61870;BME280;47810;42.264;23.826;2023-06-22T07:36:57;94251.13;;;24.97;56.90
61870;BME280;47810;42.264;23.826;2023-06-22T07:39:23;94252.38;;;25.18;57.98
61870;BME280;47810;42.264;23.826;2023-06-22T07:41:51;94246.97;;;25.41;57.66
61870;BME280;47810;42.264;23.826;2023-06-22T07:44:16;94246.09;;;25.63;56.38
61870;BME280;47810;42.264;23.826;2023-06-22T07:46:42;94253.13;;;25.72;55.44
61870;BME280;47810;42.264;23.826;2023-06-22T07:49:07;94254.03;;;25.88;55.71
61870;BME280;47810;42.264;23.826;2023-06-22T07:51:35;94244.16;;;25.95;54.99
61870;BME280;47810;42.264;23.826;2023-06-22T07:54:01;94254.06;;;26.17;56.71
61870;BME280;47810;42.264;23.826;2023-06-22T07:56:27;94244.63;;;26.28;54.59
61870;BME280;47810;42.264;23.826;2023-06-22T07:58:52;94254.72;;;26.34;51.95
61870;BME280;47810;42.264;23.826;2023-06-22T08:01:18;94250.69;;;26.45;51.59
61870;BME280;47810;42.264;23.826;2023-06-22T08:03:49;94254.81;;;26.70;52.04
61870;BME280;47810;42.264;23.826;2023-06-22T08:06:15;94237.63;;;26.63;52.01
61870;BME280;47810;42.264;23.826;2023-06-22T08:08:41;94240.03;;;26.88;50.55
61870;BME280;47810;42.264;23.826;2023-06-22T08:11:08;94254.69;;;26.93;51.11
61870;BME280;47810;42.264;23.826;2023-06-22T08:13:33;94233.56;;;27.04;48.50
61870;BME280;47810;42.264;23.826;2023-06-22T08:15:59;94239.22;;;27.24;47.44
61870;BME280;47810;42.264;23.826;2023-06-22T08:18:25;94239.84;;;27.69;51.23
61870;BME280;47810;42.264;23.826;2023-06-22T08:20:50;94236.84;;;27.78;48.48
61870;BME280;47810;42.264;23.826;2023-06-22T08:23:16;94237.91;;;28.12;49.79
61870;BME280;47810;42.264;23.826;2023-06-22T08:25:42;94231.38;;;28.34;48.62
61870;BME280;47810;42.264;23.826;2023-06-22T08:28:07;94242.44;;;28.61;46.18
61870;BME280;47810;42.264;23.826;2023-06-22T08:30:33;94242.28;;;28.76;43.86
61870;BME280;47810;42.264;23.826;2023-06-22T08:32:59;94236.03;;;28.82;42.48
61870;BME280;47810;42.264;23.826;2023-06-22T08:35:24;94235.13;;;28.62;44.09
61870;BME280;47810;42.264;23.826;2023-06-22T08:37:50;94232.59;;;29.01;42.94
61870;BME280;47810;42.264;23.826;2023-06-22T08:40:20;94233.91;;;29.25;42.60
61870;BME280;47810;42.264;23.826;2023-06-22T08:42:46;94232.69;;;29.41;42.67
61870;BME280;47810;42.264;23.826;2023-06-22T08:45:12;94236.09;;;29.57;43.90
61870;BME280;47810;42.264;23.826;2023-06-22T08:47:40;94230.88;;;29.82;42.03
61870;BME280;47810;42.264;23.826;2023-06-22T08:50:09;94225.84;;;29.92;43.24
61870;BME280;47810;42.264;23.826;2023-06-22T08:52:35;94231.09;;;30.20;43.54
61870;BME280;47810;42.264;23.826;2023-06-22T08:55:02;94232.31;;;30.17;41.40
61870;BME280;47810;42.264;23.826;2023-06-22T08:57:27;94225.22;;;30.23;40.13
61870;BME280;47810;42.264;23.826;2023-06-22T08:59:53;94222.88;;;30.40;39.11
61870;BME280;47810;42.264;23.826;2023-06-22T09:02:23;94231.03;;;30.60;40.32
61870;BME280;47810;42.264;23.826;2023-06-22T09:04:49;94228.47;;;30.65;39.86
61870;BME280;47810;42.264;23.826;2023-06-22T09:07:21;94219.84;;;30.75;39.07
61870;BME280;47810;42.264;23.826;2023-06-22T09:09:48;94218.44;;;30.59;38.80
61870;BME280;47810;42.264;23.826;2023-06-22T09:12:13;94225.97;;;30.77;37.68
61870;BME280;47810;42.264;23.826;2023-06-22T09:14:39;94229.09;;;31.25;37.17
61870;BME280;47810;42.264;23.826;2023-06-22T09:17:04;94215.31;;;31.52;35.84
61870;BME280;47810;42.264;23.826;2023-06-22T09:19:30;94221.31;;;31.67;38.80
61870;BME280;47810;42.264;23.826;2023-06-22T09:21:55;94217.28;;;32.01;37.36
61870;BME280;47810;42.264;23.826;2023-06-22T09:24:21;94213.78;;;32.38;33.79
61870;BME280;47810;42.264;23.826;2023-06-22T09:26:47;94220.44;;;32.48;35.99
61870;BME280;47810;42.264;23.826;2023-06-22T09:29:12;94218.56;;;32.42;35.73
61870;BME280;47810;42.264;23.826;2023-06-22T09:31:38;94217.75;;;32.42;35.18
61870;BME280;47810;42.264;23.826;2023-06-22T09:34:03;94220.16;;;32.57;34.02
61870;BME280;47810;42.264;23.826;2023-06-22T09:36:29;94226.16;;;32.47;33.92
61870;BME280;47810;42.264;23.826;2023-06-22T09:38:55;94226.78;;;31.67;34.22
61870;BME280;47810;42.264;23.826;2023-06-22T09:41:24;94222.97;;;32.00;36.13
61870;BME280;47810;42.264;23.826;2023-06-22T09:43:49;94226.50;;;32.07;36.80
61870;BME280;47810;42.264;23.826;2023-06-22T09:46:15;94234.28;;;32.29;36.43
61870;BME280;47810;42.264;23.826;2023-06-22T09:48:41;94231.84;;;32.39;35.10
61870;BME280;47810;42.264;23.826;2023-06-22T09:51:07;94225.84;;;32.74;34.78
61870;BME280;47810;42.264;23.826;2023-06-22T09:53:32;94234.00;;;32.99;33.35
61870;BME280;47810;42.264;23.826;2023-06-22T09:56:00;94223.56;;;32.89;34.43
61870;BME280;47810;42.264;23.826;2023-06-22T09:58:26;94226.63;;;33.17;34.46
61870;BME280;47810;42.264;23.826;2023-06-22T10:00:52;94230.91;;;31.76;34.43
61870;BME280;47810;42.264;23.826;2023-06-22T10:03:18;94230.09;;;32.69;33.83
61870;BME280;47810;42.264;23.826;2023-06-22T10:05:43;94223.72;;;32.94;32.98
61870;BME280;47810;42.264;23.826;2023-06-22T10:08:09;94217.72;;;32.67;32.54
61870;BME280;47810;42.264;23.826;2023-06-22T10:10:35;94214.84;;;31.87;35.10
61870;BME280;47810;42.264;23.826;2023-06-22T10:13:10;94214.34;;;31.71;36.19
61870;BME280;47810;42.264;23.826;2023-06-22T10:15:37;94210.13;;;32.00;37.27
61870;BME280;47810;42.264;23.826;2023-06-22T10:18:02;94200.88;;;31.76;36.74
61870;BME280;47810;42.264;23.826;2023-06-22T10:20:28;94205.78;;;32.61;37.06
61870;BME280;47810;42.264;23.826;2023-06-22T10:22:53;94210.63;;;32.96;35.55
61870;BME280;47810;42.264;23.826;2023-06-22T10:25:19;94205.88;;;33.70;32.73
61870;BME280;47810;42.264;23.826;2023-06-22T10:27:44;94211.25;;;34.42;30.74
61870;BME280;47810;42.264;23.826;2023-06-22T10:30:10;94204.31;;;34.04;33.34
61870;BME280;47810;42.264;23.826;2023-06-22T10:32:38;94202.41;;;34.40;31.65
61870;BME280;47810;42.264;23.826;2023-06-22T10:35:04;94199.53;;;34.47;30.78
61870;BME280;47810;42.264;23.826;2023-06-22T10:37:30;94195.06;;;34.52;33.30
61870;BME280;47810;42.264;23.826;2023-06-22T10:39:56;94197.06;;;34.57;31.18
61870;BME280;47810;42.264;23.826;2023-06-22T10:42:21;94193.09;;;34.41;30.72
61870;BME280;47810;42.264;23.826;2023-06-22T10:44:47;94200.28;;;34.42;32.10
61870;BME280;47810;42.264;23.826;2023-06-22T10:47:13;94186.91;;;34.34;30.48
61870;BME280;47810;42.264;23.826;2023-06-22T10:49:38;94186.69;;;34.24;30.56
61870;BME280;47810;42.264;23.826;2023-06-22T10:52:05;94181.53;;;34.16;31.53
61870;BME280;47810;42.264;23.826;2023-06-22T10:54:32;94186.66;;;34.47;31.52
61870;BME280;47810;42.264;23.826;2023-06-22T10:56:58;94190.47;;;34.70;30.63
61870;BME280;47810;42.264;23.826;2023-06-22T10:59:24;94189.31;;;34.66;32.98
61870;BME280;47810;42.264;23.826;2023-06-22T11:01:51;94184.56;;;35.13;30.33
61870;BME280;47810;42.264;23.826;2023-06-22T11:04:17;94185.78;;;35.06;30.09
61870;BME280;47810;42.264;23.826;2023-06-22T11:06:43;94196.72;;;34.65;31.30
61870;BME280;47810;42.264;23.826;2023-06-22T11:09:08;94193.88;;;33.71;33.14
61870;BME280;47810;42.264;23.826;2023-06-22T11:11:34;94190.34;;;33.94;32.36
61870;BME280;47810;42.264;23.826;2023-06-22T11:13:59;94180.13;;;32.62;33.08
61870;BME280;47810;42.264;23.826;2023-06-22T11:16:25;94175.31;;;33.43;33.91
61870;BME280;47810;42.264;23.826;2023-06-22T11:18:50;94185.25;;;34.33;31.90
61870;BME280;47810;42.264;23.826;2023-06-22T11:21:16;94181.16;;;34.83;31.36
61870;BME280;47810;42.264;23.826;2023-06-22T11:23:42;94180.91;;;33.48;32.74
61870;BME280;47810;42.264;23.826;2023-06-22T11:26:07;94181.56;;;33.32;34.31
61870;BME280;47810;42.264;23.826;2023-06-22T11:28:33;94189.69;;;33.69;31.62
61870;BME280;47810;42.264;23.826;2023-06-22T11:30:59;94176.13;;;33.44;33.27
61870;BME280;47810;42.264;23.826;2023-06-22T11:33:24;94175.75;;;33.70;32.53
61870;BME280;47810;42.264;23.826;2023-06-22T11:35:50;94181.16;;;34.00;30.64
61870;BME280;47810;42.264;23.826;2023-06-22T11:38:15;94178.81;;;34.04;30.89
61870;BME280;47810;42.264;23.826;2023-06-22T11:40:42;94175.06;;;33.75;31.71
61870;BME280;47810;42.264;23.826;2023-06-22T11:43:07;94173.03;;;33.82;32.88
61870;BME280;47810;42.264;23.826;2023-06-22T11:45:33;94171.56;;;33.68;32.54
61870;BME280;47810;42.264;23.826;2023-06-22T11:47:58;94166.22;;;33.31;32.77
61870;BME280;47810;42.264;23.826;2023-06-22T11:50:24;94167.66;;;33.45;32.34
61870;BME280;47810;42.264;23.826;2023-06-22T11:52:50;94167.94;;;33.97;30.20
61870;BME280;47810;42.264;23.826;2023-06-22T11:55:15;94166.38;;;33.78;32.63
61870;BME280;47810;42.264;23.826;2023-06-22T11:58:02;94167.34;;;33.95;31.92
61870;BME280;47810;42.264;23.826;2023-06-22T12:00:29;94165.56;;;34.01;31.22
61870;BME280;47810;42.264;23.826;2023-06-22T12:02:56;94163.44;;;34.15;30.04
61870;BME280;47810;42.264;23.826;2023-06-22T12:05:21;94164.28;;;34.03;32.54
61870;BME280;47810;42.264;23.826;2023-06-22T12:07:47;94162.91;;;33.82;31.76
61870;BME280;47810;42.264;23.826;2023-06-22T12:10:13;94154.03;;;34.11;31.69
61870;BME280;47810;42.264;23.826;2023-06-22T12:12:39;94160.41;;;33.81;31.78
61870;BME280;47810;42.264;23.826;2023-06-22T12:15:05;94154.78;;;33.64;32.42
61870;BME280;47810;42.264;23.826;2023-06-22T12:17:31;94153.72;;;33.77;31.09
61870;BME280;47810;42.264;23.826;2023-06-22T12:19:56;94156.13;;;33.85;31.83
61870;BME280;47810;42.264;23.826;2023-06-22T12:22:22;94151.47;;;33.74;31.58
61870;BME280;47810;42.264;23.826;2023-06-22T12:24:48;94143.97;;;32.79;31.34
61870;BME280;47810;42.264;23.826;2023-06-22T12:27:13;94140.16;;;32.61;32.81
61870;BME280;47810;42.264;23.826;2023-06-22T12:29:41;94132.00;;;32.43;32.67
61870;BME280;47810;42.264;23.826;2023-06-22T12:32:07;94129.19;;;32.50;35.71
61870;BME280;47810;42.264;23.826;2023-06-22T12:34:32;94135.28;;;32.08;34.30
61870;BME280;47810;42.264;23.826;2023-06-22T12:36:58;94134.75;;;32.18;34.04
61870;BME280;47810;42.264;23.826;2023-06-22T12:39:23;94130.91;;;32.44;33.27
61870;BME280;47810;42.264;23.826;2023-06-22T12:41:49;94133.91;;;32.17;34.57
61870;BME280;47810;42.264;23.826;2023-06-22T12:44:15;94138.41;;;32.30;33.70
61870;BME280;47810;42.264;23.826;2023-06-22T12:46:40;94140.69;;;31.90;33.97
61870;BME280;47810;42.264;23.826;2023-06-22T12:49:06;94142.53;;;31.96;34.10
61870;BME280;47810;42.264;23.826;2023-06-22T12:51:31;94140.09;;;31.81;35.20
61870;BME280;47810;42.264;23.826;2023-06-22T12:53:57;94142.91;;;31.74;35.31